createdAt,value
2023-03-14T00:01:21.177Z,3.93
2023-03-14T00:03:49.279Z,5.80
2023-03-14T00:06:18.590Z,3.87
2023-03-14T00:08:47.104Z,2.97
2023-03-14T00:11:16.891Z,5.17
2023-03-14T00:13:51.210Z,6.80
2023-03-14T00:16:21.624Z,2.73
2023-03-14T00:18:49.610Z,4.60
2023-03-14T00:21:17.814Z,6.37
2023-03-14T00:23:46.048Z,6.77
2023-03-14T00:26:16.423Z,6.30
2023-03-14T00:28:45.225Z,5.87
2023-03-14T00:31:14.864Z,7.57
2023-03-14T00:33:44.715Z,5.73
2023-03-14T00:36:15.031Z,8.80
2023-03-14T00:38:44.386Z,3.20
2023-03-14T00:41:14.571Z,5.73
2023-03-14T00:43:42.707Z,6.17
2023-03-14T00:46:11.437Z,6.37
2023-03-14T00:48:39.645Z,7.53
2023-03-14T00:51:12.203Z,8.10
2023-03-14T00:53:41.478Z,6.37
2023-03-14T00:56:12.396Z,5.93
2023-03-14T00:58:40.741Z,6.13
2023-03-14T01:01:09.722Z,5.37
2023-03-14T01:03:38.137Z,7.70
2023-03-14T01:06:12.651Z,7.33
2023-03-14T01:08:40.659Z,10.43
2023-03-14T01:11:10.818Z,5.57
2023-03-14T01:13:38.948Z,3.70
2023-03-14T01:16:09.367Z,8.63
2023-03-14T01:18:38.057Z,6.70
2023-03-14T01:21:13.120Z,7.90
2023-03-14T01:23:41.025Z,3.93
2023-03-14T01:26:11.185Z,8.03
2023-03-14T01:28:39.372Z,5.53
2023-03-14T01:31:09.059Z,6.47
2023-03-14T01:33:37.318Z,5.30
2023-03-14T01:36:08.782Z,5.90
2023-03-14T01:38:39.521Z,6.93
2023-03-14T01:41:08.891Z,4.23
2023-03-14T01:43:36.819Z,7.43
2023-03-14T01:46:21.954Z,5.73
2023-03-14T01:48:55.843Z,10.53
2023-03-14T01:51:28.853Z,13.10
2023-03-14T01:54:04.685Z,6.67
2023-03-14T01:56:33.445Z,9.03
2023-03-14T01:59:03.072Z,5.77
2023-03-14T02:01:31.560Z,11.20
2023-03-14T02:04:04.903Z,4.43
2023-03-14T02:06:40.101Z,9.20
2023-03-14T02:09:09.373Z,6.87
2023-03-14T02:11:37.361Z,4.53
2023-03-14T02:14:06.885Z,6.33
2023-03-14T02:16:36.116Z,5.20
2023-03-14T02:19:05.891Z,4.00
2023-03-14T02:21:47.098Z,5.07
2023-03-14T02:24:23.800Z,5.53
2023-03-14T02:27:11.187Z,6.53
2023-03-14T02:29:45.219Z,5.60
2023-03-14T02:32:13.696Z,9.57
2023-03-14T02:34:44.356Z,9.73
2023-03-14T02:37:13.276Z,6.43
2023-03-14T02:39:45.489Z,7.10
2023-03-14T02:42:15.518Z,9.67
2023-03-14T02:44:54.937Z,6.63
2023-03-14T02:47:28.612Z,5.73
2023-03-14T02:50:04.531Z,4.37
2023-03-14T02:52:32.604Z,6.23
2023-03-14T02:55:00.585Z,5.00
2023-03-14T02:57:29.933Z,6.23
2023-03-14T03:00:01.334Z,4.37
2023-03-14T03:02:29.864Z,7.50
2023-03-14T03:04:57.750Z,8.53
2023-03-14T03:07:25.695Z,6.97
2023-03-14T03:09:53.671Z,3.90
2023-03-14T03:12:21.617Z,4.67
2023-03-14T03:14:50.907Z,7.27
2023-03-14T03:17:18.893Z,5.67
2023-03-14T03:19:46.800Z,6.87
2023-03-14T03:22:14.685Z,5.37
2023-03-14T03:24:42.675Z,11.40
2023-03-14T03:27:10.519Z,6.83
2023-03-14T03:29:38.436Z,7.37
2023-03-14T03:32:07.826Z,6.57
2023-03-14T03:34:36.068Z,5.43
2023-03-14T03:37:03.964Z,5.90
2023-03-14T03:39:31.841Z,6.13
2023-03-14T03:41:59.741Z,6.13
2023-03-14T03:44:27.606Z,5.20
2023-03-14T03:46:55.518Z,5.70
2023-03-14T03:49:37.903Z,8.00
2023-03-14T03:52:05.827Z,8.37
2023-03-14T03:54:33.889Z,6.13
2023-03-14T03:57:01.764Z,7.57
2023-03-14T03:59:29.950Z,5.20
2023-03-14T04:01:57.836Z,8.40
2023-03-14T04:04:27.331Z,7.33
2023-03-14T04:06:55.237Z,7.60
2023-03-14T04:09:23.127Z,11.07
2023-03-14T04:11:51.018Z,7.13
2023-03-14T04:14:19.091Z,4.90
2023-03-14T04:16:46.971Z,4.50
2023-03-14T04:19:15.001Z,6.33
2023-03-14T04:21:45.825Z,6.97
2023-03-14T04:24:13.784Z,8.67
2023-03-14T04:26:41.929Z,8.43
2023-03-14T04:29:11.504Z,6.37
2023-03-14T04:31:40.256Z,4.87
2023-03-14T04:34:08.316Z,5.67
2023-03-14T04:36:38.485Z,4.57
2023-03-14T04:39:08.965Z,4.87
2023-03-14T04:41:36.906Z,5.67
2023-03-14T04:44:04.796Z,5.20
2023-03-14T04:46:32.763Z,5.53
2023-03-14T04:49:00.708Z,4.77
2023-03-14T04:51:28.953Z,6.80
2023-03-14T04:53:56.863Z,5.07
2023-03-14T04:56:26.430Z,6.10
2023-03-14T04:58:54.352Z,5.40
2023-03-14T05:01:22.332Z,4.20
2023-03-14T05:03:50.274Z,7.00
2023-03-14T05:06:18.195Z,5.23
2023-03-14T05:08:46.116Z,5.43
2023-03-14T05:11:14.070Z,4.70
2023-03-14T05:13:43.449Z,2.87
2023-03-14T05:16:12.902Z,4.17
2023-03-14T05:18:40.957Z,5.77
2023-03-14T05:21:09.050Z,3.70
2023-03-14T05:23:36.949Z,5.83
2023-03-14T05:26:04.892Z,4.00
2023-03-14T05:28:32.753Z,3.73
2023-03-14T05:31:02.017Z,4.47
2023-03-14T05:33:29.987Z,5.67
2023-03-14T05:35:57.936Z,5.67
2023-03-14T05:38:25.962Z,4.17
2023-03-14T05:40:54.103Z,5.50
2023-03-14T05:43:22.183Z,4.43
2023-03-14T05:45:50.217Z,3.03
2023-03-14T05:48:19.832Z,4.60
2023-03-14T05:50:47.778Z,5.50
2023-03-14T05:53:16.370Z,3.43
2023-03-14T05:55:44.282Z,4.10
2023-03-14T05:58:12.383Z,5.80
2023-03-14T06:00:40.483Z,3.43
2023-03-14T06:03:08.465Z,5.43
2023-03-14T06:05:37.789Z,2.53
2023-03-14T06:08:06.290Z,3.13
2023-03-14T06:10:34.358Z,5.40
2023-03-14T06:13:02.275Z,2.60
2023-03-14T06:15:30.277Z,2.53
2023-03-14T06:17:58.667Z,3.73
2023-03-14T06:20:26.677Z,4.43
2023-03-14T06:22:59.365Z,5.17
2023-03-14T06:25:27.294Z,3.73
2023-03-14T06:27:55.212Z,5.40
2023-03-14T06:30:23.354Z,5.50
2023-03-14T06:32:51.491Z,3.90
2023-03-14T06:35:19.649Z,3.07
2023-03-14T06:37:47.583Z,3.40
2023-03-14T06:40:18.938Z,3.20
2023-03-14T06:42:47.010Z,2.67
2023-03-14T06:45:15.528Z,3.60
2023-03-14T06:47:43.574Z,2.93
2023-03-14T06:50:12.416Z,3.83
2023-03-14T06:52:42.165Z,6.67
2023-03-14T06:55:10.712Z,4.23
2023-03-14T06:57:40.001Z,3.70
2023-03-14T07:00:09.769Z,4.70
2023-03-14T07:02:42.995Z,3.87
2023-03-14T07:05:12.166Z,2.97
2023-03-14T07:07:40.357Z,3.37
2023-03-14T07:10:09.665Z,4.77
2023-03-14T07:12:39.140Z,2.37
2023-03-14T07:15:18.098Z,3.77
2023-03-14T07:17:48.958Z,2.40
2023-03-14T07:20:17.065Z,6.87
2023-03-14T07:22:44.954Z,4.27
2023-03-14T07:25:13.126Z,3.93
2023-03-14T07:27:44.704Z,5.17
2023-03-14T07:30:14.248Z,5.17
2023-03-14T07:32:42.372Z,4.63
2023-03-14T07:35:11.312Z,3.37
2023-03-14T07:37:39.517Z,5.60
2023-03-14T07:40:11.645Z,2.60
2023-03-14T07:42:39.610Z,4.57
2023-03-14T07:45:10.452Z,4.47
2023-03-14T07:47:38.578Z,7.10
2023-03-14T07:50:07.935Z,3.80
2023-03-14T07:52:35.931Z,5.17
2023-03-14T07:55:03.918Z,4.93
2023-03-14T07:57:31.936Z,3.70
2023-03-14T07:59:59.876Z,4.70
2023-03-14T08:02:29.288Z,2.43
2023-03-14T08:04:57.423Z,7.17
2023-03-14T08:07:25.573Z,6.20
2023-03-14T08:09:53.518Z,3.77
2023-03-14T08:12:21.591Z,5.27
2023-03-14T08:14:49.633Z,5.10
2023-03-14T08:17:17.664Z,5.00
2023-03-14T08:19:46.983Z,4.73
2023-03-14T08:22:15.724Z,6.03
2023-03-14T08:24:44.292Z,6.90
2023-03-14T08:27:12.271Z,5.83
2023-03-14T08:29:42.564Z,4.33
2023-03-14T08:32:10.724Z,4.80
2023-03-14T08:34:39.878Z,3.00
2023-03-14T08:37:19.891Z,2.37
2023-03-14T08:39:54.046Z,8.43
2023-03-14T08:42:22.100Z,3.40
2023-03-14T08:44:50.044Z,2.60
2023-03-14T08:47:17.976Z,2.03
2023-03-14T08:49:46.007Z,3.93
2023-03-14T08:52:17.210Z,2.80
2023-03-14T08:54:46.058Z,4.27
2023-03-14T08:57:14.037Z,4.63
2023-03-14T08:59:41.916Z,4.20
2023-03-14T09:02:13.415Z,5.13
2023-03-14T09:04:41.715Z,3.50
2023-03-14T09:07:09.666Z,7.87
2023-03-14T09:09:39.210Z,3.23
2023-03-14T09:12:07.532Z,2.93
2023-03-14T09:14:35.784Z,2.60
2023-03-14T09:17:04.785Z,5.33
2023-03-14T09:19:32.699Z,3.43
2023-03-14T09:22:00.603Z,2.67
2023-03-14T09:24:28.578Z,3.37
2023-03-14T09:26:58.884Z,3.20
2023-03-14T09:29:27.194Z,2.80
2023-03-14T09:31:55.246Z,4.47
2023-03-14T09:34:23.303Z,2.07
2023-03-14T09:36:51.229Z,1.50
2023-03-14T09:39:19.205Z,3.20
2023-03-14T09:41:50.649Z,2.23
2023-03-14T09:44:26.315Z,2.50
2023-03-14T09:46:58.318Z,4.63
2023-03-14T09:49:29.874Z,2.73
2023-03-14T09:52:04.041Z,2.83
2023-03-14T09:54:38.394Z,4.57
2023-03-14T09:57:08.074Z,2.60
2023-03-14T09:59:38.007Z,2.77
2023-03-14T10:02:16.657Z,3.67
2023-03-14T10:04:46.946Z,2.50
2023-03-14T10:07:17.298Z,2.20
2023-03-14T10:09:46.602Z,3.03
2023-03-14T10:12:15.065Z,1.60
2023-03-14T10:14:50.984Z,2.03
2023-03-14T10:17:21.239Z,5.13
2023-03-14T10:19:58.142Z,3.43
2023-03-14T10:22:29.959Z,4.50
2023-03-14T10:25:00.365Z,1.57
2023-03-14T10:27:33.782Z,1.97
2023-03-14T10:30:05.707Z,2.57
2023-03-14T10:35:20.814Z,1.07
2023-03-14T10:37:55.463Z,2.03
2023-03-14T10:40:30.530Z,3.87
2023-03-14T10:43:01.616Z,2.47
2023-03-14T10:45:41.257Z,3.30
2023-03-14T10:48:23.158Z,2.70
2023-03-14T10:50:56.983Z,2.70
2023-03-14T10:53:28.829Z,1.50
2023-03-14T10:56:00.035Z,1.30
2023-03-14T10:58:32.639Z,1.50
2023-03-14T11:01:15.544Z,1.43
2023-03-14T11:03:49.755Z,3.03
2023-03-14T11:06:25.839Z,1.30
2023-03-14T11:08:59.854Z,2.20
2023-03-14T11:11:31.470Z,4.97
2023-03-14T11:14:11.184Z,2.30
2023-03-14T11:16:54.389Z,2.80
2023-03-14T11:19:50.613Z,2.77
2023-03-14T11:22:26.428Z,2.83
2023-03-14T11:25:14.663Z,4.03
2023-03-14T11:27:45.539Z,2.77
2023-03-14T11:30:21.761Z,2.87
2023-03-14T11:33:01.328Z,3.23
2023-03-14T11:35:32.804Z,4.00
2023-03-14T11:38:11.557Z,3.40
2023-03-14T11:40:43.763Z,4.87
2023-03-14T11:43:21.745Z,2.60
2023-03-14T11:45:52.313Z,0.97
2023-03-14T11:48:32.358Z,1.33
2023-03-14T11:51:04.643Z,1.03
2023-03-14T11:53:52.352Z,1.37
2023-03-14T11:56:26.675Z,1.87
2023-03-14T11:59:14.868Z,0.83
2023-03-14T12:01:56.641Z,1.87
2023-03-14T12:04:41.200Z,0.50
2023-03-14T12:07:17.445Z,1.33
2023-03-14T12:09:48.123Z,0.93
2023-03-14T12:12:21.350Z,1.77
2023-03-14T12:14:57.054Z,2.40
2023-03-14T12:17:28.584Z,1.00
2023-03-14T12:20:08.225Z,2.17
2023-03-14T12:22:38.518Z,1.03
2023-03-14T12:25:16.857Z,1.10
2023-03-14T12:27:51.668Z,1.30
2023-03-14T12:30:28.348Z,1.23
2023-03-14T12:33:23.874Z,0.47
2023-03-14T12:35:59.145Z,0.63
2023-03-14T12:38:33.978Z,0.67
2023-03-14T12:41:08.466Z,0.73
2023-03-14T12:43:38.333Z,0.30
2023-03-14T12:46:17.585Z,0.33
2023-03-14T12:48:47.795Z,0.40
2023-03-14T12:51:19.069Z,3.60
2023-03-14T12:54:08.746Z,0.23
2023-03-14T12:56:53.435Z,0.30
2023-03-14T12:59:32.792Z,0.53
2023-03-14T13:02:04.444Z,0.20
2023-03-14T13:04:40.083Z,0.30
2023-03-14T13:07:14.175Z,0.30
2023-03-14T13:10:03.041Z,0.83
2023-03-14T13:12:38.711Z,1.27
2023-03-14T13:15:19.301Z,1.50
2023-03-14T13:17:50.218Z,0.70
2023-03-14T13:20:24.258Z,1.30
2023-03-14T13:22:53.587Z,1.10
2023-03-14T13:25:23.027Z,1.53
2023-03-14T13:27:56.768Z,0.60
2023-03-14T13:30:27.606Z,0.93
2023-03-14T13:32:59.390Z,1.67
2023-03-14T13:35:31.546Z,0.50
2023-03-14T13:38:11.656Z,0.60
2023-03-14T13:40:44.770Z,0.60
2023-03-14T13:43:19.591Z,1.20
2023-03-14T13:45:51.894Z,0.57
2023-03-14T13:48:20.869Z,0.60
2023-03-14T13:50:53.868Z,3.53
2023-03-14T13:53:24.001Z,1.17
2023-03-14T13:55:54.011Z,0.53
2023-03-14T13:58:25.689Z,0.73
2023-03-14T14:01:16.599Z,0.47
2023-03-14T14:03:50.255Z,0.80
2023-03-14T14:06:28.365Z,1.30
2023-03-14T14:08:59.169Z,1.53
2023-03-14T14:11:48.467Z,1.80
2023-03-14T14:14:21.533Z,1.10
2023-03-14T14:16:53.441Z,0.87
2023-03-14T14:19:23.481Z,0.80
2023-03-14T14:21:52.871Z,0.80
2023-03-14T14:24:25.388Z,1.40
2023-03-14T14:26:54.599Z,0.60
2023-03-14T14:29:28.616Z,1.50
2023-03-14T14:32:04.674Z,1.03
2023-03-14T14:34:43.853Z,0.73
2023-03-14T14:37:27.836Z,0.87
2023-03-14T14:40:00.273Z,0.73
2023-03-14T14:42:31.384Z,0.30
2023-03-14T14:45:00.881Z,0.30
2023-03-14T14:47:31.048Z,0.40
2023-03-14T14:50:02.811Z,1.50
2023-03-14T14:52:44.411Z,0.40
2023-03-14T14:55:20.239Z,0.50
2023-03-14T14:57:53.331Z,0.43
2023-03-14T15:00:23.731Z,1.13
2023-03-14T15:02:55.507Z,0.67
2023-03-14T15:05:25.929Z,0.30
2023-03-14T15:07:54.497Z,0.37
2023-03-14T15:10:27.079Z,0.30
2023-03-14T15:12:55.218Z,0.30
2023-03-14T15:15:23.323Z,0.40
2023-03-14T15:17:51.296Z,0.77
2023-03-14T15:20:20.659Z,0.30
2023-03-14T15:22:49.012Z,0.53
2023-03-14T15:25:39.977Z,1.50
2023-03-14T15:28:14.278Z,1.07
2023-03-14T15:30:42.408Z,0.90
2023-03-14T15:33:10.497Z,13.03
2023-03-14T15:35:39.160Z,34.10
2023-03-14T15:38:07.879Z,4.57
2023-03-14T15:40:36.480Z,3.13
2023-03-14T15:43:08.557Z,9.07
2023-03-14T15:45:38.131Z,12.10
2023-03-14T15:48:06.764Z,4.10
2023-03-14T15:50:35.649Z,2.20
2023-03-14T15:53:04.197Z,1.10
2023-03-14T15:55:32.268Z,4.17
2023-03-14T15:58:03.312Z,4.67
2023-03-14T16:00:35.966Z,1.97
2023-03-14T16:03:04.945Z,3.00
2023-03-14T16:05:33.022Z,2.00
2023-03-14T16:08:02.252Z,1.30
2023-03-14T16:10:30.837Z,3.30
2023-03-14T16:12:59.336Z,4.37
2023-03-14T16:15:27.867Z,3.13
2023-03-14T16:17:58.039Z,1.63
2023-03-14T16:20:35.775Z,2.40
2023-03-14T16:23:13.855Z,2.33
2023-03-14T16:25:41.889Z,1.60
2023-03-14T16:28:11.630Z,1.20
2023-03-14T16:30:40.502Z,1.37
2023-03-14T16:33:12.678Z,2.30
2023-03-14T16:35:41.206Z,3.33
2023-03-14T16:38:09.804Z,2.77
2023-03-14T16:40:37.939Z,3.00
2023-03-14T16:43:18.708Z,1.10
2023-03-14T16:45:47.267Z,1.33
2023-03-14T16:48:17.019Z,1.00
2023-03-14T16:50:45.105Z,1.20
2023-03-14T16:53:13.116Z,0.90
2023-03-14T16:55:43.959Z,0.80
2023-03-14T16:58:12.637Z,0.50
2023-03-14T17:00:40.814Z,1.33
2023-03-14T17:03:09.278Z,0.73
2023-03-14T17:05:39.345Z,0.93
2023-03-14T17:08:07.570Z,0.80
2023-03-14T17:10:38.135Z,1.07
2023-03-14T17:13:07.580Z,1.13
2023-03-14T17:15:36.900Z,1.27
2023-03-14T17:18:05.532Z,0.73
2023-03-14T17:20:34.008Z,0.80
2023-03-14T17:23:03.648Z,0.60
2023-03-14T17:25:31.713Z,1.10
2023-03-14T17:27:59.902Z,0.77
2023-03-14T17:30:28.451Z,1.60
2023-03-14T17:32:58.568Z,1.07
2023-03-14T17:35:26.790Z,3.90
2023-03-14T17:37:56.884Z,26.00
2023-03-14T17:40:28.053Z,7.60
2023-03-14T17:42:58.737Z,1.50
2023-03-14T17:45:27.106Z,0.70
2023-03-14T17:47:55.150Z,1.37
2023-03-14T17:50:23.560Z,1.70
2023-03-14T17:52:51.815Z,1.20
2023-03-14T17:55:20.394Z,1.60
2023-03-14T17:57:49.948Z,1.60
2023-03-14T18:00:19.837Z,2.13
2023-03-14T18:02:48.051Z,4.13
2023-03-14T18:05:16.313Z,3.47
2023-03-14T18:07:44.793Z,4.87
2023-03-14T18:10:14.636Z,7.10
2023-03-14T18:12:42.831Z,5.07
2023-03-14T18:15:14.547Z,6.67
2023-03-14T18:17:42.710Z,5.97
2023-03-14T18:20:13.033Z,5.73
2023-03-14T18:22:42.550Z,10.00
2023-03-14T18:25:12.181Z,9.73
2023-03-14T18:27:40.252Z,9.50
2023-03-14T18:30:11.101Z,5.33
2023-03-14T18:32:41.221Z,6.57
2023-03-14T18:35:10.770Z,5.03
2023-03-14T18:37:39.924Z,7.43
2023-03-14T18:40:13.585Z,7.07
2023-03-14T18:42:42.058Z,7.47
2023-03-14T18:45:11.282Z,7.17
2023-03-14T18:47:39.492Z,4.23
2023-03-14T18:50:10.864Z,4.60
2023-03-14T18:52:39.020Z,4.67
2023-03-14T18:55:08.142Z,8.97
2023-03-14T18:57:36.432Z,8.37
2023-03-14T19:00:07.303Z,8.70
2023-03-14T19:02:35.777Z,10.43
2023-03-14T19:05:04.247Z,11.80
2023-03-14T19:07:34.529Z,11.60
2023-03-14T19:10:03.322Z,11.13
2023-03-14T19:12:33.467Z,8.60
2023-03-14T19:15:04.893Z,13.43
2023-03-14T19:17:33.691Z,10.53
2023-03-14T19:20:02.110Z,11.33
2023-03-14T19:22:32.412Z,7.67
2023-03-14T19:25:02.186Z,8.20
2023-03-14T19:27:35.683Z,11.77
2023-03-14T19:30:04.353Z,4.63
2023-03-14T19:32:33.774Z,7.97
2023-03-14T19:35:04.914Z,7.43
2023-03-14T19:37:35.018Z,5.10
2023-03-14T19:40:07.367Z,4.20
2023-03-14T19:42:38.310Z,7.43
2023-03-14T19:45:10.330Z,4.90
2023-03-14T19:47:39.504Z,5.53
2023-03-14T19:50:09.123Z,5.77
2023-03-14T19:52:44.882Z,4.70
2023-03-14T19:55:15.434Z,5.37
2023-03-14T19:57:44.443Z,6.27
2023-03-14T20:00:17.060Z,8.37
2023-03-14T20:02:45.646Z,9.17
2023-03-14T20:05:14.914Z,7.13
2023-03-14T20:07:45.446Z,4.77
2023-03-14T20:10:17.402Z,8.43
2023-03-14T20:12:45.963Z,7.27
2023-03-14T20:15:18.478Z,11.23
2023-03-14T20:17:46.926Z,9.67
2023-03-14T20:20:15.435Z,10.97
2023-03-14T20:22:44.207Z,10.40
2023-03-14T20:25:16.555Z,6.43
2023-03-14T20:27:44.787Z,5.77
2023-03-14T20:30:14.885Z,7.60
2023-03-14T20:32:43.701Z,6.77
2023-03-14T20:35:13.551Z,6.00
2023-03-14T20:37:42.653Z,10.60
2023-03-14T20:40:13.429Z,11.07
2023-03-14T20:42:43.033Z,7.37
2023-03-14T20:45:11.891Z,7.03
2023-03-14T20:47:40.308Z,8.50
2023-03-14T20:50:10.052Z,8.77
2023-03-14T20:52:38.163Z,8.23
2023-03-14T20:55:07.084Z,10.23
2023-03-14T20:57:35.201Z,9.07
2023-03-14T21:00:07.788Z,5.27
2023-03-14T21:02:36.437Z,8.20
2023-03-14T21:05:05.156Z,9.03
2023-03-14T21:07:36.986Z,9.43
2023-03-14T21:10:05.402Z,9.67
2023-03-14T21:12:33.673Z,4.67
2023-03-14T21:15:01.847Z,5.97
2023-03-14T21:17:31.344Z,4.90
2023-03-14T21:19:59.640Z,6.83
2023-03-14T21:22:29.653Z,6.07
2023-03-14T21:24:57.869Z,9.40
2023-03-14T21:27:25.858Z,10.97
2023-03-14T21:29:53.944Z,9.93
2023-03-14T21:32:22.132Z,5.83
2023-03-14T21:34:52.671Z,8.43
2023-03-14T21:37:22.361Z,7.03
2023-03-14T21:39:50.371Z,6.60
2023-03-14T21:42:18.546Z,8.53
2023-03-14T21:44:48.629Z,7.70
2023-03-14T21:47:17.390Z,11.53
2023-03-14T21:49:45.731Z,8.40
2023-03-14T21:52:15.649Z,8.67
2023-03-14T21:54:43.990Z,7.23
2023-03-14T21:57:14.601Z,8.53
2023-03-14T21:59:43.622Z,8.90
2023-03-14T22:02:16.646Z,8.30
2023-03-14T22:04:45.036Z,10.33
2023-03-14T22:07:18.901Z,8.13
2023-03-14T22:09:51.744Z,9.70
2023-03-14T22:12:20.076Z,11.07
2023-03-14T22:14:49.180Z,12.23
2023-03-14T22:17:19.894Z,11.10
2023-03-14T22:19:47.985Z,8.13
2023-03-14T22:22:17.404Z,10.93
2023-03-14T22:24:45.503Z,11.07
2023-03-14T22:27:13.938Z,10.00
2023-03-14T22:29:41.977Z,9.57
2023-03-14T22:32:11.823Z,9.20
2023-03-14T22:34:39.918Z,9.77
2023-03-14T22:37:08.673Z,14.13
2023-03-14T22:39:38.250Z,12.23
2023-03-14T22:42:12.213Z,14.93
2023-03-14T22:44:40.377Z,9.60
2023-03-14T22:47:08.716Z,8.63
2023-03-14T22:49:36.762Z,11.70
2023-03-14T22:52:07.826Z,8.63
2023-03-14T22:54:37.440Z,11.33
2023-03-14T22:57:05.694Z,12.47
2023-03-14T22:59:33.698Z,10.27
2023-03-14T23:02:01.702Z,10.37
2023-03-14T23:04:29.739Z,10.83
2023-03-14T23:06:57.739Z,12.93
2023-03-14T23:09:25.745Z,17.50
2023-03-14T23:11:55.764Z,13.13
2023-03-14T23:14:23.972Z,9.87
2023-03-14T23:16:52.143Z,12.90
2023-03-14T23:19:25.847Z,11.63
2023-03-14T23:21:54.038Z,11.13
2023-03-14T23:24:22.522Z,13.23
2023-03-14T23:26:51.707Z,12.03
2023-03-14T23:29:21.103Z,12.03
2023-03-14T23:31:49.301Z,7.07
2023-03-14T23:34:17.343Z,12.87
2023-03-14T23:36:45.948Z,9.10
2023-03-14T23:39:13.944Z,10.37
2023-03-14T23:41:41.927Z,14.73
2023-03-14T23:44:13.133Z,10.97
2023-03-14T23:46:42.601Z,12.37
2023-03-14T23:49:13.121Z,10.57
2023-03-14T23:51:41.148Z,12.43
2023-03-14T23:54:09.472Z,13.10
2023-03-14T23:56:37.578Z,14.97
2023-03-14T23:59:05.690Z,12.87
